Time;durP1;ratioP1;P1;durP2;ratioP2;P2;SDS_P1;SDS_P2;PMS_P1;PMS_P2;Temp;Humidity;BMP_temperature;BMP_pressure;BME280_temperature;BME280_humidity;BME280_pressure;Samples;Min_cycle;Max_cycle;Signal;HPM_P1;HPM_P2
2022/09/29 00:02:43;;;;;;;7.67;5.53;;;7.60;99.90;;;;;;6231024;23;20634;-95
2022/09/29 00:05:14;;;;;;;6.50;6.00;;;7.70;99.90;;;;;;6230638;23;20578;-96
2022/09/29 00:07:42;;;;;;;7.70;6.40;;;7.70;99.90;;;;;;6228531;23;20594;-95
2022/09/29 00:10:10;;;;;;;6.73;5.70;;;7.70;99.90;;;;;;6230563;23;21114;-96
2022/09/29 00:12:39;;;;;;;6.40;5.80;;;7.60;99.90;;;;;;6217883;23;20598;-96
2022/09/29 00:18:16;;;;;;;6.07;5.57;;;7.80;99.90;;;;;;6235102;23;20600;-96
2022/09/29 00:23:38;;;;;;;6.87;6.33;;;7.70;99.90;;;;;;6240832;23;20601;-96
2022/09/29 00:29:06;;;;;;;7.80;6.00;;;7.80;99.90;;;;;;6233335;23;20571;-96
2022/09/29 01:27:46;;;;;;;6.27;5.20;;;8.00;99.90;;;;;;6184679;22;20638;-96
2022/09/29 01:30:19;;;;;;;10.70;5.80;;;8.20;99.90;;;;;;6200683;23;20919;-96
2022/09/29 01:33:29;;;;;;;6.50;5.13;;;8.20;99.90;;;;;;6204680;23;20607;-96
2022/09/29 01:36:03;;;;;;;8.20;5.40;;;8.20;99.90;;;;;;6210056;23;20607;-96
2022/09/29 01:38:54;;;;;;;6.53;4.93;;;8.30;99.90;;;;;;6213945;23;20547;-96
2022/09/29 01:41:29;;;;;;;5.80;5.30;;;8.30;99.90;;;;;;6214098;23;20543;-96
2022/09/29 01:44:01;;;;;;;5.47;5.07;;;8.00;99.90;;;;;;6208841;23;20633;-95
2022/09/29 01:46:34;;;;;;;6.00;4.73;;;8.20;99.90;;;;;;6209564;23;20591;-95
2022/09/29 01:49:04;;;;;;;5.30;4.80;;;8.20;99.90;;;;;;6180844;23;20587;-96
2022/09/29 01:51:41;;;;;;;5.30;4.90;;;8.20;99.90;;;;;;6209537;23;20567;-96
2022/09/29 01:54:13;;;;;;;4.87;4.47;;;7.90;99.90;;;;;;6211138;23;20642;-96
2022/09/29 01:56:47;;;;;;;9.17;6.00;;;8.20;99.90;;;;;;6208625;23;20591;-95
2022/09/29 01:59:19;;;;;;;7.40;5.27;;;8.30;99.90;;;;;;6208375;23;21126;-96
2022/09/29 02:01:52;;;;;;;5.80;5.30;;;8.30;99.90;;;;;;6208211;23;20562;-96
2022/09/29 02:04:27;;;;;;;6.17;5.40;;;8.30;99.90;;;;;;6181590;23;20603;-96
2022/09/29 02:06:59;;;;;;;6.30;5.30;;;8.40;99.90;;;;;;6207454;23;20607;-96
2022/09/29 02:09:31;;;;;;;6.03;5.53;;;8.40;99.90;;;;;;6213212;23;20512;-96
2022/09/29 02:12:01;;;;;;;5.20;4.83;;;8.50;99.90;;;;;;6213393;23;20555;-96
2022/09/29 02:14:45;;;;;;;6.80;5.47;;;8.20;99.90;;;;;;6188721;23;20587;-95
2022/09/29 02:17:18;;;;;;;5.80;5.37;;;8.10;99.90;;;;;;6187683;23;20580;-96
2022/09/29 02:27:39;;;;;;;6.93;6.40;;;8.10;99.90;;;;;;6210787;23;20611;-96
2022/09/29 02:30:08;;;;;;;8.40;7.63;;;8.10;99.90;;;;;;6212151;23;20551;-96
2022/09/29 02:32:37;;;;;;;7.03;6.43;;;8.20;99.90;;;;;;6204086;23;20579;-96
2022/09/29 02:35:07;;;;;;;7.93;7.00;;;8.10;99.90;;;;;;6209543;23;20623;-96
2022/09/29 02:37:47;;;;;;;9.47;8.57;;;8.20;99.90;;;;;;6208186;23;20571;-96
2022/09/29 02:40:26;;;;;;;8.37;7.23;;;8.20;99.90;;;;;;6207920;23;20611;-96
2022/09/29 02:43:10;;;;;;;7.73;7.13;;;8.20;99.90;;;;;;6206800;23;20603;-96
2022/09/29 02:45:43;;;;;;;6.57;6.07;;;8.20;99.90;;;;;;6228928;23;20677;-96
2022/09/29 02:48:38;;;;;;;7.93;7.13;;;8.20;99.90;;;;;;6203191;23;20576;-96
2022/09/29 02:51:19;;;;;;;8.40;7.17;;;8.20;99.90;;;;;;6199805;23;20595;-96
2022/09/29 02:53:58;;;;;;;7.07;6.30;;;8.20;99.90;;;;;;6202794;23;20610;-96
2022/09/29 02:56:31;;;;;;;7.20;6.00;;;8.20;99.90;;;;;;6202166;23;20678;-96
2022/09/29 02:59:05;;;;;;;7.00;6.40;;;8.30;99.90;;;;;;6203151;23;20622;-96
2022/09/29 03:01:33;;;;;;;6.67;6.03;;;8.40;99.90;;;;;;6210031;23;20528;-96
2022/09/29 03:04:00;;;;;;;6.33;5.83;;;8.40;99.90;;;;;;6213146;23;20602;-96
2022/09/29 03:09:05;;;;;;;6.23;5.63;;;8.40;99.90;;;;;;6184741;23;20703;-96
2022/09/29 03:11:33;;;;;;;5.33;5.00;;;8.40;99.90;;;;;;6170935;22;20639;-96
2022/09/29 03:14:02;;;;;;;6.73;6.03;;;8.40;99.90;;;;;;6232792;22;20912;-95
2022/09/29 03:16:36;;;;;;;11.70;5.83;;;8.40;99.90;;;;;;6215974;23;20563;-94
2022/09/29 03:19:04;;;;;;;6.20;5.60;;;8.40;99.90;;;;;;6214739;23;20547;-93
2022/09/29 03:21:32;;;;;;;5.87;5.40;;;8.00;99.90;;;;;;6214055;23;20673;-93
2022/09/29 03:24:21;;;;;;;6.17;5.67;;;8.40;99.90;;;;;;6220026;23;20658;-96
2022/09/29 03:32:41;;;;;;;5.57;5.17;;;8.30;99.90;;;;;;6207412;23;20571;-96
2022/09/29 03:35:09;;;;;;;5.70;5.27;;;8.10;99.90;;;;;;6205224;23;20547;-96
2022/09/29 03:53:43;;;;;;;7.00;5.47;;;7.70;99.90;;;;;;6143369;23;20634;-96
2022/09/29 04:01:23;;;;;;;7.00;6.10;;;7.60;99.90;;;;;;6176205;22;20989;-95
2022/09/29 04:03:50;;;;;;;5.93;5.33;;;7.40;99.90;;;;;;6168922;23;20581;-95
2022/09/29 04:06:20;;;;;;;6.30;5.33;;;7.30;99.90;;;;;;6223085;23;20662;-95
2022/09/29 04:11:31;;;;;;;6.23;5.63;;;7.20;99.90;;;;;;6202018;23;20634;-96
2022/09/29 04:39:55;;;;;;;5.70;5.13;;;6.70;99.90;;;;;;6181007;23;20618;-96
2022/09/29 04:42:23;;;;;;;6.10;5.60;;;6.80;99.90;;;;;;6182151;23;20572;-95
2022/09/29 04:51:05;;;;;;;17.07;15.20;;;6.70;99.90;;;;;;6243604;23;20598;-95
2022/09/29 04:56:56;;;;;;;16.77;15.07;;;6.70;99.90;;;;;;6232549;23;20610;-96
2022/09/29 04:59:25;;;;;;;16.20;14.70;;;6.70;99.90;;;;;;6231206;23;20614;-95
2022/09/29 05:05:14;;;;;;;13.23;11.57;;;6.80;99.90;;;;;;6242093;23;20474;-95
2022/09/29 05:07:43;;;;;;;10.63;9.60;;;6.70;99.90;;;;;;6242313;23;20589;-95
2022/09/29 05:10:35;;;;;;;10.80;9.67;;;6.70;99.90;;;;;;6238426;23;20586;-96
2022/09/29 05:19:20;;;;;;;14.37;13.17;;;6.80;99.90;;;;;;6204407;22;20675;-95
2022/09/29 05:32:11;;;;;;;13.50;12.40;;;6.90;99.90;;;;;;6181181;22;20639;-95
2022/09/29 05:34:44;;;;;;;13.20;11.90;;;6.40;99.90;;;;;;6224675;23;20593;-95
2022/09/29 05:37:17;;;;;;;12.33;11.10;;;6.60;99.90;;;;;;6229109;22;20606;-93
2022/09/29 05:39:45;;;;;;;12.77;11.87;;;7.00;99.90;;;;;;6236714;23;20602;-95
2022/09/29 05:42:12;;;;;;;13.70;12.70;;;7.00;99.90;;;;;;6237321;23;20633;-95
2022/09/29 05:44:39;;;;;;;13.70;12.67;;;7.00;99.90;;;;;;6235411;23;20638;-94
2022/09/29 05:47:11;;;;;;;16.13;14.83;;;6.90;99.90;;;;;;6231354;23;20600;-94
2022/09/29 05:49:38;;;;;;;16.37;14.93;;;6.50;99.90;;;;;;6215707;23;20563;-95
2022/09/29 05:52:05;;;;;;;18.30;16.70;;;7.00;99.90;;;;;;6214640;23;20729;-95
2022/09/29 05:54:32;;;;;;;17.70;16.40;;;7.10;99.90;;;;;;6213921;23;20668;-94
2022/09/29 05:56:59;;;;;;;14.53;13.50;;;7.10;99.90;;;;;;6213995;23;21174;-94
2022/09/29 05:59:26;;;;;;;15.60;14.50;;;6.70;99.90;;;;;;6219024;23;20609;-94
2022/09/29 06:01:53;;;;;;;14.47;13.40;;;6.70;99.90;;;;;;6213889;23;20617;-94
2022/09/29 06:04:23;;;;;;;16.27;14.90;;;7.20;99.90;;;;;;6214215;23;20643;-95
2022/09/29 06:06:54;;;;;;;16.90;15.20;;;7.40;99.90;;;;;;6213514;23;20669;-94
2022/09/29 06:09:21;;;;;;;16.33;15.07;;;7.40;99.90;;;;;;6213578;23;20580;-94
2022/09/29 06:11:48;;;;;;;15.43;14.13;;;7.50;99.90;;;;;;6213872;23;20756;-94
2022/09/29 06:14:15;;;;;;;14.27;13.07;;;7.20;99.90;;;;;;6213858;23;20668;-94
2022/09/29 06:16:43;;;;;;;15.00;13.70;;;7.60;99.90;;;;;;6214771;23;20864;-95
2022/09/29 06:19:10;;;;;;;14.50;13.20;;;7.60;99.90;;;;;;6218467;23;20588;-95
2022/09/29 06:21:38;;;;;;;19.07;15.13;;;7.70;99.90;;;;;;6215824;23;20962;-95
2022/09/29 06:24:07;;;;;;;15.10;13.70;;;7.80;99.90;;;;;;6214060;23;20647;-96
2022/09/29 06:26:37;;;;;;;16.67;14.37;;;7.60;99.90;;;;;;6215201;23;20577;-95
2022/09/29 06:29:12;;;;;;;16.00;14.23;;;7.60;99.90;;;;;;6216500;23;20586;-95
2022/09/29 06:31:40;;;;;;;13.63;12.60;;;7.80;99.90;;;;;;6218008;23;20712;-96
2022/09/29 06:34:09;;;;;;;13.57;12.10;;;7.80;99.90;;;;;;6221134;23;20612;-94
2022/09/29 06:40:00;;;;;;;11.40;10.37;;;8.10;99.90;;;;;;6241583;23;20591;-95
2022/09/29 06:42:27;;;;;;;10.17;9.37;;;8.10;99.90;;;;;;6202843;23;20595;-93
2022/09/29 06:44:55;;;;;;;9.30;8.50;;;8.30;99.90;;;;;;6219375;23;20586;-93
2022/09/29 06:47:23;;;;;;;9.23;8.30;;;8.00;99.90;;;;;;6216580;23;20674;-94
2022/09/29 06:49:50;;;;;;;13.47;9.00;;;8.30;99.90;;;;;;6216788;23;20673;-94
2022/09/29 06:52:19;;;;;;;9.03;8.10;;;8.30;99.90;;;;;;6215998;23;20706;-94
2022/09/29 06:54:45;;;;;;;8.93;8.03;;;8.30;99.90;;;;;;6216355;23;20610;-94
2022/09/29 06:57:12;;;;;;;9.97;8.93;;;8.50;99.90;;;;;;6216175;23;20650;-94
2022/09/29 06:59:40;;;;;;;9.87;9.07;;;8.70;99.90;;;;;;6215842;23;20583;-94
2022/09/29 07:02:28;;;;;;;10.13;9.17;;;8.50;99.90;;;;;;6226559;23;20636;-95
2022/09/29 07:04:55;;;;;;;10.27;9.27;;;8.80;99.90;;;;;;6227484;23;20582;-94
2022/09/29 07:07:23;;;;;;;10.20;8.70;;;8.30;99.90;;;;;;6227438;23;20587;-95
2022/09/29 07:09:51;;;;;;;11.33;10.23;;;8.90;99.90;;;;;;6219728;23;20614;-95
2022/09/29 07:12:19;;;;;;;8.20;7.60;;;9.00;99.90;;;;;;6218541;23;20610;-95
2022/09/29 07:14:46;;;;;;;9.73;8.87;;;9.20;99.90;;;;;;6215743;23;20660;-95
2022/09/29 07:17:14;;;;;;;10.07;9.20;;;9.40;99.90;;;;;;6215000;23;20965;-94
2022/09/29 07:19:41;;;;;;;9.03;8.33;;;9.30;99.90;;;;;;6219413;23;20587;-94
2022/09/29 07:22:11;;;;;;;8.83;8.20;;;9.10;99.90;;;;;;6219452;23;20622;-95
2022/09/29 07:24:46;;;;;;;8.00;7.30;;;9.30;99.90;;;;;;6219153;23;20606;-95
2022/09/29 07:27:14;;;;;;;9.03;8.10;;;9.50;99.90;;;;;;6220025;23;20609;-95
2022/09/29 07:29:42;;;;;;;6.40;5.90;;;9.80;99.90;;;;;;6224428;23;20637;-96
2022/09/29 07:32:11;;;;;;;5.70;5.20;;;9.80;99.90;;;;;;6224494;23;20621;-96
2022/09/29 07:34:38;;;;;;;6.37;5.77;;;9.80;99.90;;;;;;6241042;23;20583;-96
2022/09/29 07:37:06;;;;;;;7.20;6.60;;;9.80;99.90;;;;;;6241812;23;20581;-96
2022/09/29 07:39:33;;;;;;;7.27;6.07;;;9.80;99.90;;;;;;6240287;23;20654;-94
2022/09/29 07:42:02;;;;;;;6.37;5.73;;;9.70;99.90;;;;;;6238033;23;20644;-94
2022/09/29 07:44:36;;;;;;;6.27;5.70;;;9.80;99.90;;;;;;6237042;23;20555;-95
2022/09/29 07:50:01;;;;;;;8.07;5.97;;;9.80;99.90;;;;;;6216140;23;20582;-95
2022/09/29 07:52:28;;;;;;;6.30;5.70;;;10.10;99.90;;;;;;6219806;23;20609;-96
2022/09/29 07:54:55;;;;;;;5.53;5.03;;;10.30;99.90;;;;;;6219456;23;20669;-96
2022/09/29 07:57:24;;;;;;;6.50;4.67;;;10.30;99.90;;;;;;6217137;23;20582;-96
2022/09/29 07:59:53;;;;;;;5.20;4.70;;;10.30;99.90;;;;;;6217594;23;20578;-95
2022/09/29 08:02:21;;;;;;;8.90;5.80;;;10.00;99.90;;;;;;6224570;23;20606;-95
2022/09/29 08:04:48;;;;;;;5.50;4.60;;;10.00;99.90;;;;;;6225314;23;20618;-95
2022/09/29 08:07:18;;;;;;;4.47;4.07;;;10.50;99.90;;;;;;6231235;23;20579;-96
2022/09/29 08:09:45;;;;;;;6.27;4.97;;;10.70;99.90;;;;;;6230413;23;20578;-96
2022/09/29 08:12:12;;;;;;;10.00;5.07;;;10.70;99.90;;;;;;6224917;23;20614;-94
2022/09/29 08:14:47;;;;;;;5.50;4.27;;;10.60;99.90;;;;;;6227322;23;20593;-94
2022/09/29 08:17:14;;;;;;;4.97;4.47;;;10.90;99.90;;;;;;6230064;23;20705;-96
2022/09/29 08:19:42;;;;;;;4.77;4.37;;;10.90;99.90;;;;;;6230927;23;20555;-96
2022/09/29 08:22:11;;;;;;;9.27;4.20;;;11.10;99.90;;;;;;6238886;23;20614;-94
2022/09/29 08:24:41;;;;;;;9.23;4.23;;;11.20;99.90;;;;;;6209331;23;20594;-95
2022/09/29 08:27:10;;;;;;;6.13;4.17;;;11.50;99.90;;;;;;6237921;23;20582;-95
2022/09/29 08:29:37;;;;;;;3.50;3.20;;;11.30;99.90;;;;;;6239398;23;20587;-96
2022/09/29 08:32:09;;;;;;;4.77;3.30;;;11.70;99.90;;;;;;6239402;23;20641;-96
2022/09/29 08:34:46;;;;;;;5.33;4.30;;;11.70;99.90;;;;;;6239545;23;20649;-95
2022/09/29 08:37:18;;;;;;;5.30;3.90;;;11.80;99.90;;;;;;6237125;23;20661;-95
2022/09/29 08:46:33;;;;;;;14.50;4.10;;;11.60;99.90;;;;;;6242053;23;20515;-96
2022/09/29 08:49:11;;;;;;;8.37;3.90;;;11.50;99.90;;;;;;6215972;23;20577;-96
2022/09/29 08:51:43;;;;;;;3.97;3.10;;;11.80;99.90;;;;;;6240854;23;20623;-96
2022/09/29 08:54:27;;;;;;;4.33;3.00;;;12.10;99.90;;;;;;6233356;22;20673;-96
2022/09/29 08:56:58;;;;;;;6.13;3.57;;;12.30;99.90;;;;;;6241756;23;20546;-96
2022/09/29 09:07:35;;;;;;;4.50;3.07;;;12.10;99.90;;;;;;6214171;22;20621;-95
2022/09/29 09:10:11;;;;;;;3.47;2.20;;;13.00;99.90;;;;;;6239519;23;20589;-95
2022/09/29 09:18:58;;;;;;;2.50;2.30;;;13.50;99.90;;;;;;6239320;23;20590;-96
2022/09/29 09:21:36;;;;;;;4.00;1.57;;;13.60;99.90;;;;;;6239034;23;20607;-96
2022/09/29 09:32:10;;;;;;;7.63;6.83;;;13.00;99.90;;;;;;6211259;23;20674;-96
2022/09/29 09:37:48;;;;;;;2.47;2.10;;;13.00;99.90;;;;;;6209633;23;20583;-96
2022/09/29 09:49:23;;;;;;;6.70;3.10;;;13.90;99.90;;;;;;6211200;23;20647;-96
2022/09/29 09:55:19;;;;;;;2.40;2.20;;;12.90;99.90;;;;;;6180179;23;20564;-96
2022/09/29 09:58:13;;;;;;;2.20;1.77;;;13.00;99.90;;;;;;6174864;23;20703;-96
2022/09/29 10:00:45;;;;;;;4.60;2.20;;;13.10;99.90;;;;;;6201091;23;20665;-96
2022/09/29 10:03:15;;;;;;;2.87;2.10;;;13.80;99.90;;;;;;6201586;23;20532;-96
2022/09/29 10:05:48;;;;;;;2.27;1.70;;;14.10;99.90;;;;;;6200131;23;20605;-96
2022/09/29 10:08:37;;;;;;;3.57;1.87;;;14.40;99.90;;;;;;6201473;23;20734;-96
2022/09/29 10:11:24;;;;;;;3.90;2.03;;;14.60;99.90;;;;;;6200940;23;20607;-96
2022/09/29 10:14:02;;;;;;;5.20;2.00;;;15.10;99.90;;;;;;6204012;23;20520;-96
2022/09/29 10:16:40;;;;;;;2.23;1.60;;;15.40;99.90;;;;;;6176667;23;20602;-96
2022/09/29 10:19:10;;;;;;;3.53;1.93;;;15.90;99.90;;;;;;6199860;23;20590;-96
2022/09/29 10:21:41;;;;;;;2.70;1.70;;;15.80;99.90;;;;;;6199266;23;20721;-96
2022/09/29 10:24:22;;;;;;;2.80;2.53;;;15.60;99.90;;;;;;6200346;23;20575;-96
2022/09/29 10:30:04;;;;;;;1.90;1.43;;;15.80;99.90;;;;;;6199564;23;20606;-95
2022/09/29 10:36:19;;;;;;;2.10;1.90;;;16.50;99.90;;;;;;6198704;23;20582;-96
2022/09/29 10:43:03;;;;;;;2.93;1.90;;;15.90;99.90;;;;;;6201180;23;20580;-95
2022/09/29 10:45:58;;;;;;;7.20;1.93;;;15.90;99.90;;;;;;6201595;23;20599;-96
2022/09/29 10:48:37;;;;;;;3.20;1.80;;;16.00;99.90;;;;;;6200062;23;21100;-96
2022/09/29 10:54:25;;;;;;;3.33;1.97;;;16.10;99.90;;;;;;6208636;23;20500;-96
2022/09/29 10:56:54;;;;;;;2.40;2.20;;;16.30;99.90;;;;;;6205624;23;20587;-96
2022/09/29 10:59:27;;;;;;;2.50;1.67;;;16.30;99.90;;;;;;6210261;23;20563;-96
2022/09/29 11:02:24;;;;;;;4.80;1.90;;;16.40;99.90;;;;;;6212663;23;20582;-96
2022/09/29 11:17:58;;;;;;;1.50;1.30;;;17.00;99.90;;;;;;6213492;23;20618;-96
2022/09/29 11:21:08;;;;;;;2.10;1.50;;;18.30;99.90;;;;;;6212006;23;20619;-96
2022/09/29 11:23:44;;;;;;;2.73;1.40;;;19.70;96.90;;;;;;6212050;23;20595;-96
2022/09/29 11:26:32;;;;;;;2.93;2.70;;;19.70;93.40;;;;;;6212006;23;20574;-96
2022/09/29 11:32:42;;;;;;;1.30;1.20;;;18.80;94.10;;;;;;6200109;23;20619;-95
2022/09/29 11:35:31;;;;;;;2.50;2.10;;;17.10;93.80;;;;;;6200257;23;20610;-96
2022/09/29 11:48:37;;;;;;;2.70;1.60;;;18.50;85.60;;;;;;6203246;23;20582;-96
2022/09/29 11:54:40;;;;;;;6.60;3.33;;;20.70;68.40;;;;;;6178933;22;20661;-95
2022/09/29 11:57:12;;;;;;;4.10;1.80;;;20.50;67.90;;;;;;6210841;23;20575;-95
2022/09/29 12:00:06;;;;;;;1.60;1.30;;;21.20;64.20;;;;;;6210303;23;20579;-94
2022/09/29 12:27:54;;;;;;;2.00;1.27;;;21.70;54.60;;;;;;6176738;22;20647;-96
2022/09/29 12:30:25;;;;;;;1.70;1.50;;;19.80;60.70;;;;;;6199811;23;20566;-95
2022/09/29 12:33:05;;;;;;;1.70;1.60;;;17.50;76.30;;;;;;6193405;23;20599;-94
2022/09/29 12:35:49;;;;;;;1.80;1.20;;;18.30;76.20;;;;;;6194178;23;20575;-95
2022/09/29 12:38:23;;;;;;;2.40;1.60;;;19.80;65.80;;;;;;6171601;23;20682;-96
2022/09/29 12:44:28;;;;;;;2.63;1.33;;;21.90;60.80;;;;;;6166059;23;20643;-96
2022/09/29 12:47:05;;;;;;;1.40;1.00;;;20.70;58.40;;;;;;6164503;23;20608;-94
2022/09/29 12:49:42;;;;;;;1.73;0.80;;;21.60;57.80;;;;;;6166294;23;20581;-95
2022/09/29 12:52:21;;;;;;;3.90;1.53;;;23.20;55.70;;;;;;6172058;23;20622;-96
2022/09/29 12:54:56;;;;;;;3.43;2.33;;;23.30;52.90;;;;;;6179538;23;20587;-95
2022/09/29 12:57:34;;;;;;;5.23;1.83;;;22.10;54.10;;;;;;6175232;23;20699;-94
2022/09/29 13:12:01;;;;;;;2.87;1.60;;;20.60;60.00;;;;;;6181019;22;20693;-95
2022/09/29 13:14:48;;;;;;;1.17;1.17;;;21.40;59.50;;;;;;6223991;23;20598;-95
2022/09/29 13:17:34;;;;;;;2.47;1.33;;;22.10;55.80;;;;;;6213018;23;20578;-95
2022/09/29 13:23:46;;;;;;;2.57;1.20;;;20.40;58.20;;;;;;6187705;22;20698;-94
2022/09/29 13:26:35;;;;;;;4.57;2.50;;;19.70;60.10;;;;;;6205367;23;20565;-95
2022/09/29 13:29:13;;;;;;;3.50;2.00;;;19.20;63.80;;;;;;6199826;23;20643;-95
2022/09/29 13:31:54;;;;;;;3.10;1.50;;;18.50;66.80;;;;;;6204744;23;20627;-96
2022/09/29 13:34:30;;;;;;;3.33;1.30;;;18.20;69.60;;;;;;6207468;23;20552;-95
2022/09/29 13:37:13;;;;;;;3.13;2.10;;;18.00;70.40;;;;;;6200922;23;20645;-95
2022/09/29 13:40:01;;;;;;;1.50;1.10;;;17.70;80.00;;;;;;6193902;23;20572;-96
2022/09/29 13:42:42;;;;;;;2.87;1.70;;;17.70;78.60;;;;;;6195264;23;20619;-95
2022/09/29 13:45:43;;;;;;;3.00;1.70;;;17.90;81.00;;;;;;6191448;23;20634;-95
2022/09/29 13:48:36;;;;;;;1.70;1.17;;;17.70;78.80;;;;;;6193077;23;20659;-95
2022/09/29 13:51:51;;;;;;;3.27;1.53;;;17.70;76.60;;;;;;6219042;23;20589;-94
2022/09/29 13:54:40;;;;;;;3.47;1.80;;;17.30;76.60;;;;;;6190738;23;20575;-94
2022/09/29 13:57:23;;;;;;;3.47;2.00;;;17.40;80.60;;;;;;6194388;23;20552;-91
2022/09/29 14:00:24;;;;;;;6.33;1.60;;;17.40;78.50;;;;;;6191990;23;20564;-93
2022/09/29 14:03:21;;;;;;;3.27;1.73;;;17.30;79.50;;;;;;6210080;23;21166;-93
2022/09/29 14:06:14;;;;;;;2.80;1.80;;;17.60;81.80;;;;;;6187407;23;20610;-93
2022/09/29 14:08:45;;;;;;;2.73;1.50;;;17.10;82.50;;;;;;6188830;23;20556;-93
2022/09/29 14:11:21;;;;;;;2.70;1.50;;;17.30;86.50;;;;;;6205328;23;20614;-93
2022/09/29 14:13:58;;;;;;;2.73;2.40;;;17.00;92.00;;;;;;6209578;23;20654;-94
2022/09/29 14:16:52;;;;;;;1.83;1.10;;;16.90;95.80;;;;;;6193474;23;20594;-93
2022/09/29 14:19:48;;;;;;;1.40;1.00;;;17.10;95.10;;;;;;6210115;23;20632;-93
2022/09/29 14:22:54;;;;;;;2.00;1.00;;;17.00;93.60;;;;;;6201225;23;20626;-92
2022/09/29 14:25:54;;;;;;;2.00;1.10;;;17.00;96.40;;;;;;6209868;23;20539;-92
2022/09/29 14:28:38;;;;;;;2.50;1.70;;;17.00;94.40;;;;;;6207497;23;20588;-92
2022/09/29 14:34:05;;;;;;;1.37;1.27;;;16.50;98.20;;;;;;6209055;23;20594;-93
2022/09/29 14:36:35;;;;;;;2.80;1.60;;;16.60;94.70;;;;;;6204630;23;20587;-93
2022/09/29 14:39:05;;;;;;;1.43;1.33;;;16.50;97.70;;;;;;6197675;23;20591;-94
2022/09/29 14:41:40;;;;;;;2.03;1.50;;;16.30;99.90;;;;;;6191644;23;20619;-93
2022/09/29 14:44:11;;;;;;;2.00;1.33;;;16.30;99.90;;;;;;6205844;23;20594;-94
2022/09/29 14:53:35;;;;;;;1.80;1.50;;;16.10;99.90;;;;;;6202505;23;20590;-94
2022/09/29 14:56:16;;;;;;;2.10;1.40;;;16.00;98.00;;;;;;6196933;23;20642;-94
2022/09/29 14:59:07;;;;;;;2.70;1.80;;;16.00;99.90;;;;;;6198280;23;20730;-93
2022/09/29 15:01:41;;;;;;;3.33;3.03;;;15.80;99.20;;;;;;6206066;23;20619;-94
2022/09/29 15:04:13;;;;;;;2.93;2.60;;;15.80;99.90;;;;;;6197785;23;21151;-92
2022/09/29 15:06:46;;;;;;;3.40;2.10;;;15.70;99.90;;;;;;6191083;23;20567;-93
2022/09/29 15:09:17;;;;;;;4.93;1.83;;;15.60;99.90;;;;;;6184975;23;20850;-93
2022/09/29 15:12:03;;;;;;;4.90;1.90;;;15.70;99.90;;;;;;6198501;23;20586;-94
2022/09/29 15:14:33;;;;;;;2.40;1.87;;;15.60;99.90;;;;;;6172624;23;20679;-93
2022/09/29 15:17:17;;;;;;;3.00;1.93;;;15.40;99.90;;;;;;6184104;23;20590;-93
2022/09/29 15:19:56;;;;;;;3.17;2.87;;;15.30;99.90;;;;;;6182913;23;20571;-92
2022/09/29 15:22:51;;;;;;;8.90;3.37;;;15.30;99.90;;;;;;6182973;23;20627;-92
2022/09/29 15:25:28;;;;;;;2.30;2.10;;;15.20;99.90;;;;;;6188187;23;20554;-93
2022/09/29 15:27:59;;;;;;;3.43;2.30;;;15.10;99.90;;;;;;6203697;23;20598;-95
2022/09/29 15:30:27;;;;;;;2.60;2.40;;;15.00;99.90;;;;;;6205093;23;20583;-94
2022/09/29 15:33:18;;;;;;;1.93;1.73;;;14.90;99.90;;;;;;6197471;23;20674;-94
2022/09/29 15:35:51;;;;;;;5.00;3.10;;;15.00;99.90;;;;;;6168204;23;20587;-94
2022/09/29 15:38:36;;;;;;;4.63;2.80;;;14.90;99.90;;;;;;6195213;23;20591;-94
2022/09/29 15:41:16;;;;;;;3.80;2.80;;;14.90;99.90;;;;;;6194809;23;20614;-93
2022/09/29 15:43:51;;;;;;;5.03;2.47;;;14.90;99.90;;;;;;6208994;23;20548;-94
2022/09/29 15:46:25;;;;;;;2.10;1.80;;;14.90;99.90;;;;;;6211632;23;20642;-95
2022/09/29 15:49:13;;;;;;;2.80;2.33;;;14.90;99.90;;;;;;6186321;23;20653;-94
2022/09/29 15:51:42;;;;;;;4.37;2.10;;;14.70;99.90;;;;;;6211571;23;20611;-96
2022/09/29 15:54:14;;;;;;;9.80;2.40;;;14.70;99.90;;;;;;6186826;23;20587;-94
2022/09/29 15:59:48;;;;;;;3.90;1.83;;;14.50;99.90;;;;;;6208108;23;20543;-93
2022/09/29 16:02:35;;;;;;;3.00;1.90;;;14.50;99.90;;;;;;6204110;23;20607;-94
2022/09/29 16:05:08;;;;;;;5.00;1.70;;;14.40;99.90;;;;;;6188196;23;20615;-94
2022/09/29 16:07:50;;;;;;;3.60;1.97;;;14.50;99.90;;;;;;6195782;23;20571;-94
2022/09/29 16:10:21;;;;;;;3.13;2.13;;;14.40;99.90;;;;;;6192364;23;20557;-93
2022/09/29 16:12:55;;;;;;;5.97;2.03;;;14.30;99.90;;;;;;6196225;23;20627;-96
2022/09/29 16:15:28;;;;;;;3.53;1.83;;;14.20;99.90;;;;;;6191637;23;20606;-93
2022/09/29 16:18:08;;;;;;;4.57;3.03;;;14.20;99.90;;;;;;6192672;23;20523;-93
2022/09/29 16:20:36;;;;;;;5.47;3.07;;;14.20;99.90;;;;;;6200406;23;20583;-92
2022/09/29 16:23:07;;;;;;;3.53;2.20;;;14.10;99.90;;;;;;6201823;23;20594;-92
2022/09/29 16:25:34;;;;;;;3.23;2.27;;;14.10;99.90;;;;;;6200269;23;20559;-95
2022/09/29 16:28:06;;;;;;;4.80;2.40;;;14.00;99.90;;;;;;6198887;23;20591;-96
2022/09/29 16:30:39;;;;;;;4.23;3.07;;;14.00;99.90;;;;;;6199880;23;20629;-94
2022/09/29 16:33:14;;;;;;;3.90;1.77;;;13.90;99.90;;;;;;6203452;23;20613;-94
2022/09/29 16:36:23;;;;;;;2.97;2.00;;;13.80;99.90;;;;;;6191390;23;21012;-95
2022/09/29 16:38:52;;;;;;;2.47;2.20;;;13.70;99.90;;;;;;6192689;23;20579;-94
2022/09/29 16:41:33;;;;;;;4.43;2.10;;;13.60;99.90;;;;;;6196223;23;20950;-93
2022/09/29 16:44:08;;;;;;;2.70;2.10;;;13.50;99.90;;;;;;6191967;23;20618;-94
2022/09/29 16:46:43;;;;;;;2.50;2.10;;;13.50;99.90;;;;;;6187668;23;20634;-95
2022/09/29 16:49:16;;;;;;;2.23;1.80;;;13.40;99.90;;;;;;6189265;23;20585;-93
2022/09/29 16:51:50;;;;;;;3.13;1.67;;;13.40;99.90;;;;;;6193130;23;20567;-94
2022/09/29 16:54:21;;;;;;;3.33;2.07;;;13.40;99.90;;;;;;6199249;23;20658;-93
2022/09/29 16:56:49;;;;;;;9.00;7.93;;;13.40;99.90;;;;;;6188394;23;20604;-94
2022/09/29 16:59:19;;;;;;;6.20;5.37;;;13.30;99.90;;;;;;6200149;23;20637;-92
2022/09/29 17:01:50;;;;;;;5.13;3.57;;;13.30;99.90;;;;;;6205281;23;20588;-94
2022/09/29 17:04:20;;;;;;;4.20;3.80;;;13.20;99.90;;;;;;6201552;23;20568;-94
2022/09/29 17:06:48;;;;;;;3.33;2.30;;;13.00;99.90;;;;;;6200730;23;20583;-92
2022/09/29 17:09:19;;;;;;;3.73;2.80;;;13.00;99.90;;;;;;6184441;23;20587;-94
2022/09/29 17:11:48;;;;;;;3.10;2.20;;;12.90;99.90;;;;;;6186825;23;20588;-93
2022/09/29 17:14:17;;;;;;;4.87;4.30;;;12.70;99.90;;;;;;6184392;23;20614;-93
2022/09/29 17:16:48;;;;;;;5.93;5.50;;;12.70;99.90;;;;;;6183170;23;20864;-93
2022/09/29 17:19:15;;;;;;;4.10;3.57;;;12.60;99.90;;;;;;6184210;23;20552;-94
2022/09/29 17:21:50;;;;;;;1.90;1.50;;;12.10;99.90;;;;;;6188701;23;20623;-94
2022/09/29 17:24:17;;;;;;;3.47;2.53;;;12.30;99.90;;;;;;6184232;23;20590;-95
2022/09/29 17:29:30;;;;;;;5.23;2.10;;;11.90;99.90;;;;;;6184700;23;20584;-93
2022/09/29 17:32:01;;;;;;;3.10;2.47;;;12.00;99.90;;;;;;6184766;23;20642;-94
2022/09/29 17:34:32;;;;;;;5.43;2.70;;;12.00;99.90;;;;;;6184275;23;20618;-93
2022/09/29 17:37:00;;;;;;;4.07;2.00;;;11.90;99.90;;;;;;6183819;23;21143;-92
2022/09/29 17:39:28;;;;;;;2.73;2.30;;;11.50;99.90;;;;;;6190931;23;20637;-91
2022/09/29 17:41:55;;;;;;;2.10;1.83;;;11.70;99.90;;;;;;6186316;23;20607;-92
2022/09/29 17:44:27;;;;;;;4.90;2.37;;;11.60;99.90;;;;;;6182462;23;21162;-91
2022/09/29 17:46:54;;;;;;;7.93;2.50;;;11.60;99.90;;;;;;6183449;23;20524;-91
2022/09/29 17:49:24;;;;;;;2.60;2.10;;;11.30;99.90;;;;;;6183986;23;21198;-91
2022/09/29 17:51:55;;;;;;;1.87;1.70;;;11.20;99.90;;;;;;6184633;23;20614;-92
2022/09/29 17:54:26;;;;;;;5.17;2.70;;;10.90;99.90;;;;;;6185491;23;20603;-92
2022/09/29 17:56:52;;;;;;;2.93;2.53;;;11.10;99.90;;;;;;6191815;23;20595;-90
2022/09/29 17:59:20;;;;;;;3.17;2.43;;;11.30;99.90;;;;;;6184138;23;21359;-90
2022/09/29 18:01:56;;;;;;;2.57;2.00;;;11.00;99.90;;;;;;6182880;23;20610;-90
2022/09/29 18:04:26;;;;;;;4.40;2.03;;;10.70;99.90;;;;;;6182334;23;21490;-91
2022/09/29 18:06:53;;;;;;;2.30;1.80;;;11.10;99.90;;;;;;6182315;23;20525;-89
2022/09/29 18:09:20;;;;;;;2.70;1.83;;;10.60;99.90;;;;;;6182860;23;20603;-90
2022/09/29 18:11:47;;;;;;;4.20;2.10;;;11.00;99.90;;;;;;6183372;23;20633;-89
2022/09/29 18:14:14;;;;;;;4.97;3.17;;;10.70;99.90;;;;;;6179902;23;20611;-90
2022/09/29 18:16:40;;;;;;;4.20;3.80;;;10.70;99.90;;;;;;6180878;23;20598;-90
2022/09/29 18:19:16;;;;;;;2.50;2.30;;;10.90;99.90;;;;;;6183538;23;21028;-90
2022/09/29 18:21:44;;;;;;;4.90;4.30;;;10.80;99.90;;;;;;6183174;23;20591;-89
2022/09/29 18:24:12;;;;;;;4.70;4.30;;;10.70;99.90;;;;;;6189878;23;20606;-89
2022/09/29 18:26:50;;;;;;;4.13;3.20;;;11.00;99.90;;;;;;6197667;23;20591;-88
2022/09/29 18:29:19;;;;;;;5.90;3.20;;;10.60;99.90;;;;;;6195902;23;20582;-90
2022/09/29 18:31:46;;;;;;;3.87;3.30;;;11.20;99.90;;;;;;6183829;23;20618;-89
2022/09/29 18:34:16;;;;;;;6.30;5.80;;;11.10;99.90;;;;;;6183289;23;20620;-91
2022/09/29 18:36:57;;;;;;;3.90;3.60;;;11.00;99.90;;;;;;6185369;23;20595;-88
2022/09/29 18:39:24;;;;;;;7.10;4.97;;;10.80;99.90;;;;;;6181046;23;20740;-90
2022/09/29 18:41:51;;;;;;;6.97;6.37;;;10.60;99.90;;;;;;6188052;22;20657;-90